Gaspé Airport, Quebec

Past 24 Hour Conditions

Date / Time
(EST)
Conditions Temp
(°F)
Humidity
(%)
Dew Point
(°F)
Wind
(mph)
Pressure
(inches)
Vis
(mi)
Wind Chill
29 November 2014
4:00 Mostly Cloudy 16   83 12 W 5 30.1 15 8
3:00 Mostly Cloudy 17 80 11 WNW 6 30.0 15 8
2:00 Light Snow 16   86 12 WNW 4 30.0 12 10
1:00 Light Snow 17 80 12 W 5 30.0 15 10
00:00 Light Snow 17 81 12 WNW 4 30.0 12 11
28 November 2014
23:00 Light Snow 17 82 13 W 6 30.0 12 8
22:00 Light Snow 17 83 13 W 6 30.0 15 9
21:00 Light Snow 18 81 13 WNW 7 30.0 15 8
20:00 Light Snow 18 83 14 W 6 30.0 10 10
19:00 Light Snow 19 81 14 WNW 5 30.0 12 11
18:00 Light Snow 19 81 14 NW 4 30.0 10 12
17:00 Light Snow 19 79 14 NW 5 30.0 10 12
16:00 Light Snow 19 78 14 NW 6 30.0 10 12
15:00 Light Snow 20 77 14 NW 5 30.0 10 14
14:00 Light Snow 21   73 13 NW 5 30.0 10 15
13:00 Light Snow 21   72 13 NNE 3 30.0 15 17
12:00 Light Snow 21   71 13 NE 7 30.0 15 12
11:00 Light Snow 21   79 15 NW 5 30.0 10 14
10:00 Light Snow 20 75 14 WNW 6 30.0 10 12
9:00 Light Snow 19 79 14 WNW 6 30.0 10 11
8:00 Light Snow 19 78 13 NW 5 30.0 10 11
7:00 Light Snow 19 77 13 NW 4 30.0 10 13
6:00 Light Snow 19 76 13 NW 5 30.0 10 12
5:00 Light Snow 18 87 15 WSW 6 30.0 8 10
4:00 Light Snow 18 85 15 W 7 30.0 20 9
N/A Not available
↑ Highest temperature
↓ Lowest temperature
* Value not significant.

If you require additional historical weather information, please visit Climate Data Online.

Date modified: